• Join FlightAware (Why Join?)
  • Login
  • US Flag 
05:14AM EDT


 

Airport Tracker/Info


-or-


 

Live Flight TrackerFlight Track Log ✈ CTL13 ✈ 29-Apr-2013 ✈ KEYE - KMDW

Flight Track Log - Related Links

Times and Time Zones

All times are in EDT time to prevent confusion due to time zone crossing. See the CTL13 flight status page for this flight to view local times or setup timezone preferences in your user account.

Time Position Orientation Groundspeed Altitude Reporting Facility
EDT Latitude Longitude Course Direction KTS MPH feet Rate Location/Type
08:21PM 39.9167 -86.2833 360° North 180 207 2,200  Level Indianapolis TRACON
08:22PM 39.9475 -86.3281 312° West 173 199 2,600 480 Climbing Chicago Center
08:23PM 39.9831 -86.3708 317° Northwest 172 198 3,100 480 Climbing Chicago Center
08:24PM 40.0186 -86.4111 319° Northwest 171 197 3,600 360 Climbing Indianapolis Center
08:25PM 40.0531 -86.4536 317° Northwest 170 196 3,900 360 Climbing Indianapolis Center
08:26PM 40.0875 -86.4967 316° Northwest 170 196 4,400 420 Climbing Indianapolis Center
08:27PM 40.1211 -86.5386 316° Northwest 168 193 4,800 480 Climbing Indianapolis Center
08:28PM 40.1536 -86.5775 318° Northwest 162 186 5,400 480 Climbing Chicago Center
08:29PM 40.1906 -86.6222 317° Northwest 156 180 5,900 420 Climbing Chicago Center
08:30PM 40.2047 -86.6419 313° West 154 177 6,100 60 Climbing Chicago Center
08:30PM 40.2225 -86.6611 321° Northwest 156 180 6,000  Descending Chicago Center
08:31PM 40.2367 -86.6822 311° West 162 186 6,100  Climbing Chicago Center
08:31PM 40.2564 -86.7050 319° Northwest 166 191 6,000 -120 Descending Chicago Center
08:32PM 40.2728 -86.7281 313° West 169 194 6,000  Level Chicago Center
08:32PM 40.2911 -86.7461 323° Northwest 168 193 6,000  Level Chicago Center
08:33PM 40.3086 -86.7711 313° West 166 191 6,000  Level Chicago Center
08:33PM 40.3256 -86.7875 324° Northwest 167 192 6,000 -120 Level Chicago Center
08:34PM 40.3406 -86.8086 313° West 165 190 5,900  Descending Chicago Center
08:34PM 40.3586 -86.8281 321° Northwest 163 188 6,000  Climbing Chicago Center
08:35PM 40.3764 -86.8519 314° West 163 188 5,900  Descending Chicago Center
08:35PM 40.3986 -86.8739 323° Northwest 163 188 6,000 60 Climbing Chicago Center
08:36PM 40.4086 -86.8894 310° West 164 189 6,000 -120 Level Chicago Center
08:36PM 40.4317 -86.9158 319° Northwest 164 189 5,900  Descending Chicago Center
08:37PM 40.4422 -86.9328 309° West 164 189 6,000  Climbing Chicago Center
08:37PM 40.4650 -86.9578 320° Northwest 164 189 5,900  Descending Chicago Center
08:38PM 40.4781 -86.9761 313° West 162 186 6,000 60 Climbing Chicago Center
08:38PM 40.4989 -86.9975 322° Northwest 163 188 6,000  Level Chicago Center
08:39PM 40.5081 -87.0136 307° West 164 189 6,000  Level Chicago Center
08:40PM 40.5400 -87.0514 318° Northwest 164 189 6,000  Level Chicago Center
08:40PM 40.5664 -87.0778 323° Northwest 162 186 6,000  Level Chicago Center
08:41PM 40.6192 -87.1019 341° North 171 197 6,000  Level Chicago Center
08:42PM 40.6614 -87.1269 336° Northwest 170 196 6,100  Climbing Chicago Center
08:43PM 40.7042 -87.1483 339° North 166 191 6,100  Level Chicago Center
08:45PM 40.7461 -87.1739 335° Northwest 167 192 6,100  Level Chicago Center
08:46PM 40.7897 -87.1972 338° Northwest 169 194 6,100  Level Chicago Center
08:47PM 40.8414 -87.2242 338° Northwest 168 193 6,100  Level Chicago Center
08:48PM 40.8839 -87.2475 337° Northwest 167 192 6,100  Level Chicago Center
08:49PM 40.9272 -87.2731 336° Northwest 171 197 6,100  Level Chicago Center
08:50PM 40.9703 -87.2953 339° North 168 193 6,100 -60 Level Chicago Center
08:51PM 41.0153 -87.3172 340° North 171 197 6,000 -60 Descending Chicago Center
08:52PM 41.0672 -87.3464 337° Northwest 170 196 6,000  Level Chicago Center
08:53PM 41.1122 -87.3692 339° North 173 199 6,000 -120 Level Chicago Center
08:54PM 41.1564 -87.3925 338° Northwest 173 199 5,800 -420 Descending Chicago Center
08:55PM 41.2047 -87.4192 337° Northwest 183 211 5,200 -600 Descending Chicago Center
08:56PM 41.2558 -87.4450 339° North 191 220 4,600 -600 Descending Chicago Center
08:57PM 41.3183 -87.4769 339° North 197 227 4,000 -300 Descending Chicago Center
08:58PM 41.3683 -87.5028 339° North 198 228 4,000  Level Chicago Center
08:59PM 41.4161 -87.5269 339° North 192 221 4,000  Level Chicago Center
09:00PM 41.4664 -87.5500 341° North 191 220 4,000  Level Chicago Center
09:01PM 41.5161 -87.5742 340° North 192 221 4,000  Level Chicago Center
09:02PM 41.5769 -87.5883 350° North 193 222 4,000  Level Chicago Center
09:03PM 41.6303 -87.5967 353° North 194 223 4,000  Level Chicago Center
09:04PM 41.6833 -87.5836 10° North 197 227 4,000 -540 Level Chicago Center
09:05PM 41.7350 -87.5461 28° Northeast 206 237 2,900 -780 Descending Chicago Center
09:06PM 41.7883 -87.5642 346° North 218 251 2,500 -360 Descending Chicago Center
09:07PM 41.8278 -87.6292 309° West 201 231 2,200 -420 Descending Chicago Center
09:08PM 41.8214 -87.6919 262° West 183 211 1,700 -300 Descending Chicago Center
09:09PM 41.8064 -87.7511 251° West 170 196 1,600 -120 Descending Chicago Center
09:11PM 41.7833 -87.7500 262° West  Level FlightAware Approximate